Time;durP1;ratioP1;P1;durP2;ratioP2;P2;SDS_P1;SDS_P2;PMS_P1;PMS_P2;Temp;Humidity;BMP_temperature;BMP_pressure;BME280_temperature;BME280_humidity;BME280_pressure;Samples;Min_cycle;Max_cycle;Signal;HPM_P1;HPM_P2
2022/08/06 00:02:37;;;;;;;1.88;0.88;;;17.50;52.00;;;;;;5107025;28;20043;-50
2022/08/06 00:05:05;;;;;;;1.45;0.80;;;17.40;51.30;;;;;;5107797;28;20447;-51
2022/08/06 00:07:33;;;;;;;0.70;0.70;;;17.40;51.40;;;;;;5100391;28;20098;-49
2022/08/06 00:10:19;;;;;;;0.82;0.47;;;17.40;51.50;;;;;;5113126;28;20234;-51
2022/08/06 00:13:00;;;;;;;1.42;0.80;;;17.40;51.30;;;;;;5104086;28;20446;-51
2022/08/06 00:15:31;;;;;;;1.33;0.80;;;17.30;51.10;;;;;;5097933;28;20048;-49
2022/08/06 00:18:17;;;;;;;2.50;0.80;;;17.30;51.20;;;;;;5101906;28;20364;-48
2022/08/06 00:20:52;;;;;;;1.65;0.90;;;17.20;51.00;;;;;;5111827;28;20036;-51
2022/08/06 00:23:19;;;;;;;0.70;0.70;;;17.20;51.00;;;;;;5112321;28;20149;-48
2022/08/06 00:25:50;;;;;;;2.42;0.70;;;17.20;51.30;;;;;;5097403;28;20043;-51
2022/08/06 00:28:23;;;;;;;1.58;0.95;;;17.10;51.40;;;;;;5113074;28;20412;-52
2022/08/06 00:31:02;;;;;;;3.75;0.90;;;17.10;51.70;;;;;;5112161;28;20051;-47
2022/08/06 00:33:38;;;;;;;0.98;0.55;;;17.00;51.30;;;;;;5100664;28;20078;-47
2022/08/06 00:36:24;;;;;;;2.58;1.40;;;17.00;51.30;;;;;;5088019;28;20062;-50
2022/08/06 00:38:56;;;;;;;1.63;0.73;;;16.90;51.20;;;;;;5109212;28;20119;-48
2022/08/06 00:41:29;;;;;;;1.77;1.25;;;16.90;51.30;;;;;;5111313;28;20047;-48
2022/08/06 00:44:20;;;;;;;1.00;0.88;;;16.80;51.30;;;;;;5096728;28;20043;-52
2022/08/06 00:46:57;;;;;;;2.63;0.75;;;16.80;51.40;;;;;;5100006;28;20040;-51
2022/08/06 00:49:30;;;;;;;0.98;0.93;;;16.70;51.40;;;;;;5112978;28;20123;-46
2022/08/06 00:52:15;;;;;;;1.00;0.80;;;16.70;51.80;;;;;;5100938;28;20380;-49
2022/08/06 00:54:45;;;;;;;2.05;1.10;;;16.60;51.50;;;;;;5096578;28;20043;-47
2022/08/06 00:57:18;;;;;;;0.75;0.75;;;16.60;51.80;;;;;;5111049;28;20093;-52
2022/08/06 00:59:51;;;;;;;1.55;1.08;;;16.50;51.90;;;;;;5112663;28;20088;-50
2022/08/06 01:02:18;;;;;;;1.73;0.77;;;16.50;52.10;;;;;;5090249;28;20463;-48
2022/08/06 01:04:51;;;;;;;1.95;0.95;;;16.50;52.20;;;;;;5109030;28;20491;-48
2022/08/06 01:07:35;;;;;;;1.10;1.10;;;16.40;52.30;;;;;;5070967;28;20080;-52
2022/08/06 01:10:18;;;;;;;2.38;0.90;;;16.40;52.30;;;;;;5078465;28;20126;-52
2022/08/06 01:12:53;;;;;;;1.75;0.77;;;16.40;52.30;;;;;;5089204;28;20055;-48
2022/08/06 01:15:22;;;;;;;1.58;1.00;;;16.30;52.40;;;;;;5092305;28;20089;-52
2022/08/06 01:18:25;;;;;;;2.08;1.05;;;16.30;52.40;;;;;;5097479;28;20110;-52
2022/08/06 01:21:22;;;;;;;1.52;0.93;;;16.30;52.90;;;;;;5110180;28;20055;-51
2022/08/06 01:24:30;;;;;;;1.33;1.00;;;16.20;52.90;;;;;;5099152;28;20032;-52
2022/08/06 01:27:36;;;;;;;2.67;0.88;;;16.20;52.90;;;;;;5101787;28;20123;-50
2022/08/06 01:30:19;;;;;;;1.13;1.00;;;16.20;52.90;;;;;;5111086;28;20047;-50
2022/08/06 01:33:16;;;;;;;1.33;0.88;;;16.10;52.60;;;;;;5094853;28;20051;-52
2022/08/06 01:35:58;;;;;;;1.10;1.00;;;16.10;53.10;;;;;;5102700;28;20071;-51
2022/08/06 01:38:37;;;;;;;2.10;0.95;;;16.00;52.60;;;;;;5111916;28;20044;-51
2022/08/06 01:41:38;;;;;;;1.65;1.10;;;16.00;53.00;;;;;;5097794;27;20048;-52
2022/08/06 01:44:29;;;;;;;1.08;1.02;;;16.00;53.00;;;;;;5096480;28;20040;-48
2022/08/06 01:47:00;;;;;;;0.82;0.82;;;15.90;52.60;;;;;;5110313;28;20051;-48
2022/08/06 01:49:33;;;;;;;2.72;1.00;;;15.90;52.70;;;;;;5099069;28;20610;-51
2022/08/06 01:52:22;;;;;;;2.03;0.98;;;15.80;52.70;;;;;;5086795;28;20057;-52
2022/08/06 01:55:00;;;;;;;1.83;1.00;;;15.80;52.80;;;;;;5110929;28;20097;-51
2022/08/06 01:57:31;;;;;;;1.45;0.95;;;15.80;53.10;;;;;;5110672;28;20044;-48
2022/08/06 02:00:19;;;;;;;3.45;1.02;;;15.70;53.10;;;;;;5094386;28;20123;-48
2022/08/06 02:02:59;;;;;;;3.42;1.40;;;15.70;53.20;;;;;;5099688;28;20048;-52
2022/08/06 02:05:31;;;;;;;1.67;0.90;;;15.70;53.60;;;;;;5111274;28;20068;-51
2022/08/06 02:08:21;;;;;;;3.00;1.35;;;15.70;53.50;;;;;;5097011;28;20519;-51
2022/08/06 02:11:10;;;;;;;1.67;1.35;;;15.70;53.30;;;;;;5106532;28;20040;-52
2022/08/06 02:14:12;;;;;;;3.60;1.10;;;15.60;53.30;;;;;;5112110;28;20458;-48
2022/08/06 02:16:42;;;;;;;1.55;1.00;;;15.60;53.10;;;;;;5105058;28;20051;-50
2022/08/06 02:19:15;;;;;;;1.27;0.95;;;15.60;53.30;;;;;;5101681;28;20048;-51
2022/08/06 02:21:57;;;;;;;1.23;0.80;;;15.50;53.50;;;;;;5110105;28;20059;-52
2022/08/06 02:24:29;;;;;;;2.33;1.20;;;15.50;53.20;;;;;;5111691;28;20039;-48
2022/08/06 02:26:59;;;;;;;1.90;1.05;;;15.50;53.70;;;;;;5096474;28;20090;-50
2022/08/06 02:29:32;;;;;;;1.05;1.05;;;15.50;53.60;;;;;;5096813;28;20043;-52
2022/08/06 02:32:19;;;;;;;2.30;0.98;;;15.40;53.70;;;;;;5093255;28;20066;-48
2022/08/06 02:34:52;;;;;;;1.50;0.93;;;15.40;53.50;;;;;;5110330;28;20518;-51
2022/08/06 02:37:28;;;;;;;1.58;1.08;;;15.40;53.90;;;;;;5098541;28;20428;-52
2022/08/06 02:40:21;;;;;;;1.80;0.90;;;15.40;53.80;;;;;;5108888;28;20099;-52
2022/08/06 02:43:13;;;;;;;1.33;1.10;;;15.30;53.80;;;;;;5109393;28;20093;-52
2022/08/06 02:45:48;;;;;;;1.30;1.20;;;15.30;54.10;;;;;;5086371;28;20142;-52
2022/08/06 02:48:38;;;;;;;1.63;1.40;;;15.30;53.80;;;;;;5090272;28;20063;-52
2022/08/06 02:51:18;;;;;;;3.25;1.65;;;15.20;53.60;;;;;;5109262;28;20066;-51
2022/08/06 02:54:13;;;;;;;4.80;1.13;;;15.20;53.60;;;;;;5110981;28;20131;-51
2022/08/06 02:56:47;;;;;;;2.35;1.25;;;15.20;53.90;;;;;;5089535;28;20331;-52
2022/08/06 02:59:21;;;;;;;1.55;1.40;;;15.10;53.70;;;;;;5110311;28;20032;-52
2022/08/06 03:01:57;;;;;;;1.48;1.20;;;15.10;54.10;;;;;;5093668;28;20036;-48
2022/08/06 03:04:31;;;;;;;2.30;1.48;;;15.10;54.40;;;;;;5081752;28;20040;-51
2022/08/06 03:07:05;;;;;;;1.55;1.40;;;15.10;54.30;;;;;;5088792;28;20044;-51
2022/08/06 03:09:55;;;;;;;3.55;1.63;;;15.00;54.30;;;;;;5101067;28;20457;-48
2022/08/06 03:12:23;;;;;;;1.95;1.35;;;15.00;53.90;;;;;;5085821;28;20071;-48
2022/08/06 03:15:02;;;;;;;2.83;1.27;;;15.00;54.10;;;;;;5084034;28;20043;-52
2022/08/06 03:17:42;;;;;;;2.60;1.42;;;14.90;54.10;;;;;;5091578;28;20115;-48
2022/08/06 03:20:15;;;;;;;1.88;1.40;;;14.90;54.10;;;;;;5088650;28;20044;-52
2022/08/06 03:22:47;;;;;;;2.08;1.40;;;14.90;54.20;;;;;;5103066;28;20028;-49
2022/08/06 03:25:17;;;;;;;2.42;1.50;;;14.90;54.30;;;;;;5100070;28;20047;-52
2022/08/06 03:27:49;;;;;;;1.40;1.30;;;14.80;54.20;;;;;;5114218;28;20048;-52
2022/08/06 03:30:18;;;;;;;2.25;1.20;;;14.80;54.20;;;;;;5113918;27;20408;-50
2022/08/06 03:33:03;;;;;;;;;;;14.80;54.30;;;;;;5097622;27;20055;-53
2022/08/06 03:35:51;;;;;;;1.73;1.35;;;14.80;54.10;;;;;;5104795;28;19919;-52
2022/08/06 03:38:28;;;;;;;1.83;1.23;;;14.80;53.70;;;;;;5073393;28;20094;-48
2022/08/06 03:40:58;;;;;;;2.67;1.40;;;14.80;54.10;;;;;;5086564;28;20044;-51
2022/08/06 03:43:27;;;;;;;2.30;1.70;;;14.70;53.90;;;;;;5096819;28;20067;-48
2022/08/06 03:46:24;;;;;;;1.50;1.40;;;14.70;54.20;;;;;;5111719;28;20047;-49
2022/08/06 03:48:53;;;;;;;2.70;1.45;;;14.70;54.20;;;;;;5106193;28;20114;-50
2022/08/06 03:51:42;;;;;;;2.88;1.63;;;14.60;54.20;;;;;;5091860;28;20112;-48
2022/08/06 03:54:26;;;;;;;1.40;1.30;;;14.60;54.30;;;;;;5098039;28;20035;-50
2022/08/06 03:57:08;;;;;;;1.13;1.08;;;14.60;54.40;;;;;;5112910;28;20059;-52
2022/08/06 03:59:42;;;;;;;5.28;1.83;;;14.60;54.60;;;;;;5114222;28;20058;-52
2022/08/06 04:02:44;;;;;;;1.45;1.35;;;14.50;54.60;;;;;;5097027;28;20062;-49
2022/08/06 04:05:27;;;;;;;2.05;1.25;;;14.50;54.90;;;;;;5113168;28;20047;-49
2022/08/06 04:07:57;;;;;;;2.00;1.20;;;14.50;55.10;;;;;;5113802;28;20040;-50
2022/08/06 04:10:37;;;;;;;1.70;1.60;;;14.40;54.50;;;;;;5100802;28;20043;-48
2022/08/06 04:13:22;;;;;;;1.35;1.25;;;14.40;54.90;;;;;;5108965;28;20040;-51
2022/08/06 04:16:15;;;;;;;2.58;1.70;;;14.40;54.80;;;;;;5109017;28;20626;-50
2022/08/06 04:19:04;;;;;;;2.97;1.60;;;14.40;55.00;;;;;;5097266;28;20488;-48
2022/08/06 04:21:38;;;;;;;1.42;1.33;;;14.40;54.90;;;;;;5091912;28;20064;-48
2022/08/06 04:24:28;;;;;;;1.35;1.25;;;14.40;55.10;;;;;;5098895;28;20115;-50
2022/08/06 04:27:02;;;;;;;2.70;1.75;;;14.40;55.30;;;;;;5111706;28;20051;-48
2022/08/06 04:29:40;;;;;;;1.30;1.20;;;14.40;55.20;;;;;;5104077;28;20517;-49
2022/08/06 04:32:26;;;;;;;3.05;1.25;;;14.40;55.40;;;;;;5097732;28;20048;-52
2022/08/06 04:35:01;;;;;;;1.88;1.63;;;14.40;55.40;;;;;;5113535;27;20419;-50
2022/08/06 04:37:53;;;;;;;2.35;1.23;;;14.30;55.50;;;;;;5101400;28;20040;-48
2022/08/06 04:40:20;;;;;;;;;;;14.40;55.70;;;;;;5095771;28;20100;-52
2022/08/06 04:43:08;;;;;;;2.45;1.48;;;14.40;55.50;;;;;;5112978;28;19951;-52
2022/08/06 04:45:39;;;;;;;2.30;1.30;;;14.40;55.50;;;;;;5110835;28;20046;-52
2022/08/06 04:48:29;;;;;;;3.47;1.73;;;14.40;55.50;;;;;;5099647;28;20047;-48
2022/08/06 04:51:06;;;;;;;3.00;1.60;;;14.40;55.50;;;;;;5112029;28;20040;-48
2022/08/06 04:53:50;;;;;;;2.28;1.58;;;14.40;55.70;;;;;;5113228;28;20047;-52
2022/08/06 04:56:26;;;;;;;1.60;1.50;;;14.40;55.80;;;;;;5092436;28;20119;-49
2022/08/06 04:59:03;;;;;;;1.75;1.38;;;14.40;56.00;;;;;;5096430;28;20055;-52
2022/08/06 05:01:36;;;;;;;2.20;1.42;;;14.40;56.20;;;;;;5111537;28;20042;-52
2022/08/06 05:04:26;;;;;;;1.80;1.40;;;14.40;56.30;;;;;;5109425;28;20046;-48
2022/08/06 05:06:56;;;;;;;1.90;1.67;;;14.50;56.50;;;;;;5094536;28;20051;-50
2022/08/06 05:09:27;;;;;;;2.90;1.70;;;14.50;57.10;;;;;;5081640;28;20058;-51
2022/08/06 05:12:24;;;;;;;1.40;1.30;;;14.50;57.20;;;;;;5079999;28;20044;-48
2022/08/06 05:15:06;;;;;;;2.45;1.73;;;14.50;57.50;;;;;;5083547;28;20070;-52
2022/08/06 05:17:40;;;;;;;2.42;2.22;;;14.60;57.70;;;;;;5090033;28;20389;-52
2022/08/06 05:20:21;;;;;;;2.00;1.90;;;14.60;57.40;;;;;;5088581;28;20047;-48
2022/08/06 05:23:27;;;;;;;2.10;1.80;;;14.70;58.00;;;;;;5071278;28;20048;-47
2022/08/06 05:26:00;;;;;;;1.90;1.52;;;14.70;58.70;;;;;;5073067;28;20669;-48
2022/08/06 05:28:30;;;;;;;2.90;2.60;;;14.80;57.70;;;;;;5110597;28;20097;-50
2022/08/06 05:30:57;;;;;;;3.63;2.35;;;14.80;57.90;;;;;;5111170;28;20044;-48
2022/08/06 05:33:33;;;;;;;2.42;1.75;;;14.80;58.10;;;;;;5085796;28;20153;-52
2022/08/06 05:36:12;;;;;;;1.73;1.63;;;14.90;58.40;;;;;;5085712;28;20124;-49
2022/08/06 05:38:45;;;;;;;2.92;1.98;;;15.00;59.40;;;;;;5107038;28;20461;-52
2022/08/06 05:41:28;;;;;;;3.53;2.70;;;15.00;58.50;;;;;;5085013;28;20044;-49
2022/08/06 05:44:04;;;;;;;3.13;2.50;;;15.10;58.80;;;;;;5102758;28;20043;-51
2022/08/06 05:46:40;;;;;;;5.63;2.38;;;15.20;59.40;;;;;;5110833;28;20043;-48
2022/08/06 05:49:12;;;;;;;4.45;3.60;;;15.20;59.50;;;;;;5112616;28;20039;-48
2022/08/06 05:52:20;;;;;;;3.90;3.10;;;15.30;60.20;;;;;;5096102;28;20457;-52
2022/08/06 05:54:55;;;;;;;5.53;3.83;;;15.40;62.00;;;;;;5094155;28;20051;-50
2022/08/06 05:57:31;;;;;;;5.90;3.78;;;15.50;61.20;;;;;;5094116;28;20461;-48
2022/08/06 06:00:16;;;;;;;5.40;3.97;;;15.60;61.20;;;;;;5110473;28;20047;-52
2022/08/06 06:03:06;;;;;;;5.78;4.43;;;15.70;61.50;;;;;;5100447;28;20340;-47
2022/08/06 06:05:53;;;;;;;5.85;3.70;;;15.80;60.70;;;;;;5097090;28;20118;-52
2022/08/06 06:08:42;;;;;;;5.70;4.13;;;15.90;60.40;;;;;;5096650;28;20039;-49
2022/08/06 06:11:27;;;;;;;4.85;4.05;;;16.10;60.30;;;;;;5100792;28;20485;-48
2022/08/06 06:14:39;;;;;;;6.40;4.20;;;16.20;60.50;;;;;;5097692;28;20131;-50
2022/08/06 06:17:35;;;;;;;6.60;4.05;;;16.30;61.10;;;;;;5107874;28;20438;-49
2022/08/06 06:20:12;;;;;;;5.45;4.25;;;16.50;60.70;;;;;;5092292;28;20063;-49
2022/08/06 06:23:17;;;;;;;5.90;4.28;;;16.50;60.20;;;;;;5082102;28;20040;-48
2022/08/06 06:26:09;;;;;;;3.95;3.45;;;16.60;60.40;;;;;;5096512;28;20140;-52
2022/08/06 06:29:21;;;;;;;5.18;3.63;;;16.70;60.40;;;;;;5109557;28;20100;-49
2022/08/06 06:32:38;;;;;;;5.22;3.47;;;16.80;60.30;;;;;;5088894;28;20036;-48
2022/08/06 06:35:43;;;;;;;6.05;3.63;;;16.90;60.00;;;;;;5107359;28;20050;-51
2022/08/06 06:38:25;;;;;;;4.72;3.70;;;16.90;59.60;;;;;;5068505;28;20088;-52
2022/08/06 06:41:17;;;;;;;5.07;3.83;;;17.00;59.00;;;;;;5084034;28;20036;-48
2022/08/06 06:43:53;;;;;;;6.28;3.45;;;17.10;60.30;;;;;;5087050;28;20051;-52
2022/08/06 06:46:29;;;;;;;5.45;3.78;;;17.10;59.40;;;;;;5090246;28;20071;-52
2022/08/06 06:49:40;;;;;;;6.75;3.70;;;17.20;59.60;;;;;;5087329;28;20563;-49
2022/08/06 06:52:38;;;;;;;5.47;3.72;;;17.30;60.70;;;;;;5060244;28;20060;-50
2022/08/06 06:55:25;;;;;;;3.65;3.35;;;17.30;60.30;;;;;;5107925;28;20474;-48
2022/08/06 06:58:19;;;;;;;7.30;3.25;;;17.40;60.10;;;;;;5086627;28;20657;-52
2022/08/06 07:00:52;;;;;;;4.10;3.40;;;17.40;59.60;;;;;;5083185;28;20123;-52
2022/08/06 07:03:42;;;;;;;4.03;3.15;;;17.50;59.50;;;;;;5081381;28;20062;-52
2022/08/06 07:06:12;;;;;;;5.03;2.60;;;17.60;59.80;;;;;;5081287;28;20427;-48
2022/08/06 07:09:01;;;;;;;3.03;2.78;;;17.70;60.00;;;;;;5082371;28;20450;-51
2022/08/06 07:11:44;;;;;;;3.30;2.97;;;17.70;59.20;;;;;;5080606;28;20040;-49
2022/08/06 07:14:32;;;;;;;6.88;2.53;;;17.80;59.10;;;;;;5078043;28;20446;-49
2022/08/06 07:17:00;;;;;;;2.95;1.75;;;17.90;59.00;;;;;;5077931;28;20418;-49
2022/08/06 07:19:50;;;;;;;6.65;2.15;;;17.90;58.70;;;;;;5080226;28;20068;-48
2022/08/06 07:22:20;;;;;;;;;;;18.10;58.70;;;;;;5076831;28;20461;-51
2022/08/06 07:24:58;;;;;;;5.70;2.33;;;18.20;58.10;;;;;;5090503;28;19926;-49
2022/08/06 07:27:30;;;;;;;2.70;2.10;;;18.20;58.50;;;;;;5084157;28;20093;-49
2022/08/06 07:30:13;;;;;;;7.77;2.70;;;18.20;58.00;;;;;;5102915;28;20046;-51
2022/08/06 07:32:42;;;;;;;2.75;1.75;;;18.30;58.00;;;;;;5080851;28;20077;-50
2022/08/06 07:35:20;;;;;;;5.63;2.15;;;18.40;57.90;;;;;;5077698;28;20441;-49
2022/08/06 07:37:55;;;;;;;1.48;1.35;;;18.40;57.90;;;;;;5092674;28;20051;-48
2022/08/06 07:40:26;;;;;;;2.53;1.45;;;18.50;57.60;;;;;;5090438;28;20043;-52
2022/08/06 07:43:16;;;;;;;6.18;1.67;;;18.50;57.30;;;;;;5094030;28;20051;-49
2022/08/06 07:45:56;;;;;;;3.30;1.23;;;18.60;57.80;;;;;;5099810;28;20066;-52
2022/08/06 07:48:31;;;;;;;2.13;1.20;;;18.70;57.20;;;;;;5089935;28;20043;-48
2022/08/06 07:51:06;;;;;;;2.53;1.58;;;18.70;57.20;;;;;;5106600;28;20582;-49
2022/08/06 07:53:39;;;;;;;2.08;1.08;;;18.80;57.10;;;;;;5110271;28;20122;-50
2022/08/06 07:56:25;;;;;;;5.57;1.27;;;18.90;57.00;;;;;;5099862;28;20127;-49
2022/08/06 07:58:55;;;;;;;1.85;0.88;;;19.00;56.60;;;;;;5085466;28;20044;-48
2022/08/06 08:01:29;;;;;;;7.00;1.40;;;19.00;56.20;;;;;;5104268;28;20083;-50
2022/08/06 08:07:03;;;;;;;2.95;0.90;;;19.20;56.50;;;;;;5093771;28;20039;-48
2022/08/06 08:09:34;;;;;;;1.80;0.90;;;19.20;56.00;;;;;;5113435;28;20512;-50
2022/08/06 08:12:26;;;;;;;1.48;0.68;;;19.30;55.80;;;;;;5112888;28;20044;-50
2022/08/06 08:15:06;;;;;;;1.60;0.75;;;19.40;55.50;;;;;;5093288;28;20063;-53
2022/08/06 08:17:48;;;;;;;2.30;1.00;;;19.50;55.70;;;;;;5110880;28;20042;-49
2022/08/06 08:20:29;;;;;;;2.38;0.80;;;19.60;55.50;;;;;;5100054;28;20047;-49
2022/08/06 08:23:03;;;;;;;2.75;0.70;;;19.80;55.30;;;;;;5101920;28;20035;-49
2022/08/06 08:25:33;;;;;;;1.48;0.52;;;19.80;54.60;;;;;;5100374;28;20063;-48
2022/08/06 08:28:10;;;;;;;1.45;0.40;;;19.90;54.60;;;;;;5113940;28;20411;-49
2022/08/06 08:30:42;;;;;;;0.85;0.70;;;20.10;54.10;;;;;;5112322;28;20036;-52
2022/08/06 08:33:19;;;;;;;1.10;0.40;;;20.10;53.70;;;;;;5106874;28;20044;-51
2022/08/06 08:35:50;;;;;;;1.63;0.65;;;20.20;53.60;;;;;;5103598;28;20043;-51
2022/08/06 08:38:31;;;;;;;1.65;0.50;;;20.40;53.30;;;;;;5073069;28;20048;-50
2022/08/06 08:41:12;;;;;;;0.70;0.38;;;20.40;52.90;;;;;;5075656;28;20086;-47
2022/08/06 08:43:48;;;;;;;4.57;1.27;;;20.50;52.60;;;;;;5091922;28;20060;-51
2022/08/06 08:46:43;;;;;;;2.50;0.50;;;20.60;52.40;;;;;;5098543;28;20047;-48
2022/08/06 08:49:47;;;;;;;0.63;0.30;;;20.70;52.20;;;;;;5113035;27;20044;-52
2022/08/06 08:52:16;;;;;;;0.85;0.30;;;20.80;52.20;;;;;;5097504;28;20549;-49
2022/08/06 08:54:51;;;;;;;0.63;0.40;;;20.80;51.80;;;;;;5104221;28;20039;-47
2022/08/06 08:57:22;;;;;;;1.77;0.55;;;20.90;51.30;;;;;;5111779;28;20039;-51
2022/08/06 09:00:14;;;;;;;0.90;0.40;;;21.00;51.40;;;;;;5097334;28;20059;-51
2022/08/06 09:02:55;;;;;;;0.35;0.28;;;21.20;51.20;;;;;;5095094;28;20032;-49
2022/08/06 09:05:26;;;;;;;1.98;0.38;;;21.30;51.00;;;;;;5096638;28;20039;-48
2022/08/06 09:08:02;;;;;;;4.95;0.63;;;21.40;50.20;;;;;;5113363;27;20043;-48
2022/08/06 09:10:30;;;;;;;1.73;0.45;;;21.40;49.70;;;;;;5097428;28;20039;-51
2022/08/06 09:13:02;;;;;;;0.28;0.28;;;21.50;49.40;;;;;;5104755;28;20050;-49
2022/08/06 09:15:48;;;;;;;0.80;0.40;;;21.50;49.20;;;;;;5110237;28;20134;-48
2022/08/06 09:18:25;;;;;;;1.40;0.35;;;21.50;48.70;;;;;;5088760;28;20564;-49
2022/08/06 09:20:56;;;;;;;0.73;0.20;;;21.60;48.60;;;;;;5088799;28;20032;-51
2022/08/06 09:23:24;;;;;;;0.40;0.20;;;21.60;47.90;;;;;;5088603;28;20036;-52
2022/08/06 09:26:03;;;;;;;0.40;0.25;;;21.70;48.40;;;;;;5087343;28;20036;-48
2022/08/06 09:28:35;;;;;;;2.10;0.28;;;21.70;47.60;;;;;;5075507;28;20044;-51
2022/08/06 09:31:06;;;;;;;0.85;0.25;;;21.90;46.50;;;;;;5081486;28;20044;-51
2022/08/06 09:33:57;;;;;;;0.17;0.10;;;21.90;46.60;;;;;;5089745;28;20059;-49
2022/08/06 09:36:46;;;;;;;1.77;0.35;;;21.90;45.90;;;;;;5084947;28;20040;-49
2022/08/06 09:39:13;;;;;;;1.35;0.30;;;22.00;46.40;;;;;;5087151;28;20036;-49
2022/08/06 09:41:51;;;;;;;2.47;0.30;;;22.10;45.90;;;;;;5091882;28;20110;-53
2022/08/06 09:44:18;;;;;;;1.17;0.20;;;22.20;46.20;;;;;;5088894;28;20044;-49
2022/08/06 09:47:06;;;;;;;1.33;0.55;;;22.20;45.80;;;;;;5079083;28;20462;-49
2022/08/06 09:49:45;;;;;;;0.40;0.20;;;22.30;45.70;;;;;;5091158;28;20119;-49
2022/08/06 09:52:26;;;;;;;2.80;0.60;;;22.50;45.50;;;;;;5094357;28;20084;-52
2022/08/06 09:54:53;;;;;;;0.52;0.30;;;22.60;45.20;;;;;;5094411;28;20407;-49
2022/08/06 09:57:41;;;;;;;1.60;0.30;;;22.60;45.30;;;;;;5089322;28;20032;-50
2022/08/06 10:00:08;;;;;;;1.60;0.38;;;22.70;44.80;;;;;;5101184;28;20100;-51
2022/08/06 10:02:42;;;;;;;0.30;0.20;;;22.80;45.10;;;;;;5086854;28;20044;-50
2022/08/06 10:05:17;;;;;;;1.73;0.40;;;22.80;45.10;;;;;;5085431;28;20101;-52
2022/08/06 10:07:47;;;;;;;0.30;0.20;;;22.90;45.20;;;;;;5092342;28;20050;-49
2022/08/06 10:10:20;;;;;;;1.13;0.25;;;22.90;44.60;;;;;;5091000;28;20047;-52
2022/08/06 10:13:26;;;;;;;0.63;0.20;;;22.90;44.30;;;;;;5085628;28;20535;-49
2022/08/06 10:16:17;;;;;;;0.70;0.32;;;22.90;43.50;;;;;;5087433;28;20123;-49
2022/08/06 10:18:48;;;;;;;0.43;0.32;;;22.90;44.10;;;;;;5092864;28;20047;-52
2022/08/06 10:21:29;;;;;;;0.30;0.20;;;22.90;44.40;;;;;;5084439;28;20109;-51
2022/08/06 10:24:10;;;;;;;0.75;0.30;;;23.00;44.80;;;;;;5079031;28;20119;-48
2022/08/06 10:26:38;;;;;;;1.50;0.40;;;23.10;45.10;;;;;;5087285;28;20036;-53
2022/08/06 10:29:10;;;;;;;;;;;23.20;45.10;;;;;;5093878;28;20036;-52
2022/08/06 10:31:37;;;;;;;1.20;0.40;;;23.30;45.50;;;;;;5081499;28;19920;-49
2022/08/06 10:34:09;;;;;;;2.05;0.30;;;23.50;44.20;;;;;;5085906;28;20464;-52
2022/08/06 10:36:57;;;;;;;1.02;0.30;;;23.60;43.60;;;;;;5089624;28;20044;-53
2022/08/06 10:39:27;;;;;;;1.88;0.40;;;23.60;43.30;;;;;;5088983;28;20051;-53
2022/08/06 10:42:15;;;;;;;2.17;0.20;;;23.60;43.00;;;;;;5085500;28;20105;-48
2022/08/06 10:44:49;;;;;;;1.73;0.85;;;23.60;42.50;;;;;;5080385;28;20032;-48
2022/08/06 10:47:17;;;;;;;0.40;0.20;;;23.60;41.70;;;;;;5082790;28;20039;-50
2022/08/06 10:50:04;;;;;;;0.30;0.10;;;23.60;41.10;;;;;;5086951;28;20067;-48
2022/08/06 10:52:52;;;;;;;1.48;0.20;;;23.60;41.30;;;;;;5081457;28;20073;-48
2022/08/06 10:55:21;;;;;;;0.68;0.20;;;23.60;41.30;;;;;;5088286;28;20043;-49
2022/08/06 10:57:49;;;;;;;1.60;0.20;;;23.60;40.80;;;;;;5106106;28;20236;-49
2022/08/06 11:00:17;;;;;;;1.10;0.43;;;23.60;40.70;;;;;;5083470;28;20123;-49
2022/08/06 11:02:57;;;;;;;0.95;0.20;;;23.60;41.90;;;;;;5083789;28;20579;-51
2022/08/06 11:05:36;;;;;;;0.77;0.30;;;23.70;41.90;;;;;;5101007;28;20647;-53
2022/08/06 11:08:54;;;;;;;0.30;0.20;;;23.70;40.30;;;;;;5087677;28;20039;-49
2022/08/06 11:11:50;;;;;;;0.25;0.10;;;23.80;41.10;;;;;;5052385;28;20060;-52
2022/08/06 11:14:37;;;;;;;0.38;0.38;;;24.00;40.70;;;;;;5094035;28;20118;-52
2022/08/06 11:17:05;;;;;;;1.00;0.20;;;24.10;40.80;;;;;;5095195;28;20043;-52
2022/08/06 11:19:48;;;;;;;0.90;0.30;;;24.20;40.90;;;;;;5097382;28;20052;-49
2022/08/06 11:22:41;;;;;;;1.27;0.20;;;24.30;40.40;;;;;;5087983;28;20048;-49
2022/08/06 11:25:55;;;;;;;1.02;0.30;;;24.40;40.20;;;;;;5085248;28;20135;-48
2022/08/06 11:28:28;;;;;;;1.08;0.20;;;24.50;40.30;;;;;;5072261;28;20048;-49
2022/08/06 11:30:57;;;;;;;1.40;0.32;;;24.60;40.20;;;;;;5085333;28;20040;-53
2022/08/06 11:33:35;;;;;;;0.10;0.10;;;24.60;39.70;;;;;;5089039;28;20139;-48
2022/08/06 11:36:24;;;;;;;1.00;0.30;;;24.70;39.80;;;;;;5084793;28;20045;-53
2022/08/06 11:38:54;;;;;;;0.20;0.20;;;24.60;39.60;;;;;;5084980;28;20034;-52
2022/08/06 11:41:27;;;;;;;0.47;0.20;;;24.60;40.30;;;;;;5104509;28;20085;-49
2022/08/06 11:44:17;;;;;;;0.93;0.30;;;24.50;40.00;;;;;;5118990;22;20103;-49
2022/08/06 11:46:48;;;;;;;0.95;0.60;;;24.50;40.10;;;;;;5031688;28;20410;-46
2022/08/06 11:49:42;;;;;;;0.35;0.30;;;24.40;40.20;;;;;;5033806;28;20099;-48
2022/08/06 11:52:33;;;;;;;3.58;0.20;;;24.50;40.40;;;;;;5055263;28;20064;-52
2022/08/06 11:55:08;;;;;;;0.85;0.80;;;24.40;40.30;;;;;;5072387;28;20048;-50
2022/08/06 11:57:48;;;;;;;0.30;0.30;;;24.40;40.40;;;;;;5061818;28;20048;-50
2022/08/06 12:00:19;;;;;;;0.77;0.55;;;24.50;41.10;;;;;;5052835;28;20048;-49
2022/08/06 12:02:53;;;;;;;1.45;0.25;;;24.50;40.90;;;;;;5057879;28;20489;-47
2022/08/06 12:05:22;;;;;;;1.13;0.20;;;24.60;40.30;;;;;;5032029;28;20037;-51
2022/08/06 12:08:21;;;;;;;0.52;0.17;;;24.70;39.80;;;;;;5042223;28;20048;-51
2022/08/06 12:11:27;;;;;;;1.10;0.20;;;24.90;39.40;;;;;;5069138;28;20456;-52
2022/08/06 12:13:54;;;;;;;0.77;0.20;;;25.10;39.60;;;;;;5059071;28;20049;-51
2022/08/06 12:16:42;;;;;;;0.85;0.43;;;25.30;40.00;;;;;;5049732;28;20154;-48
2022/08/06 12:19:20;;;;;;;0.77;0.22;;;25.40;39.60;;;;;;5055854;28;20098;-51
2022/08/06 12:21:53;;;;;;;0.68;0.30;;;25.60;39.50;;;;;;5067117;28;20095;-52
2022/08/06 12:24:25;;;;;;;5.30;0.95;;;25.80;38.20;;;;;;5044943;28;20049;-51
2022/08/06 12:27:12;;;;;;;1.23;0.17;;;25.90;37.70;;;;;;5047413;28;20095;-53
2022/08/06 12:29:39;;;;;;;0.40;0.20;;;26.00;37.40;;;;;;5062464;28;20131;-51
2022/08/06 12:32:26;;;;;;;0.80;0.20;;;25.90;36.90;;;;;;5061011;28;20409;-53
2022/08/06 12:35:04;;;;;;;1.33;0.30;;;25.80;36.80;;;;;;5059872;28;20417;-48
2022/08/06 12:37:35;;;;;;;1.08;0.30;;;25.70;36.60;;;;;;5066030;28;20054;-52
2022/08/06 12:40:26;;;;;;;0.47;0.20;;;25.60;36.90;;;;;;5050272;28;20037;-50
2022/08/06 12:43:08;;;;;;;1.00;0.32;;;25.50;37.00;;;;;;5050103;28;20041;-48
2022/08/06 12:45:42;;;;;;;0.63;0.28;;;25.30;37.10;;;;;;5044032;28;20370;-49
2022/08/06 12:48:29;;;;;;;1.10;0.20;;;25.20;37.20;;;;;;5053616;28;20512;-56
2022/08/06 12:51:11;;;;;;;0.95;0.77;;;25.20;37.50;;;;;;5058652;28;20059;-50
2022/08/06 12:53:52;;;;;;;1.17;0.30;;;25.10;37.30;;;;;;5047087;28;20055;-51
2022/08/06 12:56:22;;;;;;;1.45;0.20;;;25.10;37.90;;;;;;5055904;28;20044;-48
2022/08/06 12:59:00;;;;;;;0.57;0.40;;;25.10;37.90;;;;;;5064731;28;20515;-48
2022/08/06 13:01:29;;;;;;;0.70;0.20;;;25.10;37.70;;;;;;5054239;28;20413;-49
2022/08/06 13:04:18;;;;;;;0.30;0.30;;;25.10;37.50;;;;;;5050595;28;20458;-48
2022/08/06 13:06:45;;;;;;;1.42;0.20;;;25.20;37.30;;;;;;5066950;28;20036;-51
2022/08/06 13:09:16;;;;;;;0.68;0.22;;;25.20;36.90;;;;;;5072550;28;20062;-50
2022/08/06 13:11:43;;;;;;;0.47;0.35;;;25.30;36.90;;;;;;5069899;28;20564;-52
2022/08/06 13:14:17;;;;;;;1.23;0.85;;;25.50;37.30;;;;;;5059361;28;20047;-47
2022/08/06 13:16:48;;;;;;;1.05;0.30;;;25.70;37.10;;;;;;5062877;28;20523;-47
2022/08/06 13:19:22;;;;;;;0.43;0.20;;;25.80;36.50;;;;;;5053346;28;20041;-51
2022/08/06 13:22:07;;;;;;;1.75;0.20;;;26.10;36.80;;;;;;5062756;28;20078;-47
2022/08/06 13:24:37;;;;;;;3.50;0.52;;;26.30;36.50;;;;;;5052154;28;20042;-50
2022/08/06 13:27:34;;;;;;;0.52;0.40;;;26.50;36.50;;;;;;5069495;28;20044;-48
2022/08/06 13:30:04;;;;;;;0.60;0.20;;;26.80;36.40;;;;;;5031634;28;20413;-49
2022/08/06 13:32:50;;;;;;;0.30;0.22;;;27.00;36.50;;;;;;5049745;28;20600;-52
2022/08/06 13:35:26;;;;;;;0.38;0.30;;;27.20;36.00;;;;;;5057007;28;20044;-50
2022/08/06 13:37:58;;;;;;;2.28;0.45;;;27.40;36.00;;;;;;5071831;28;20497;-51
2022/08/06 13:40:47;;;;;;;1.98;0.28;;;27.60;36.00;;;;;;5061566;28;20030;-49
2022/08/06 13:43:44;;;;;;;0.73;0.22;;;27.80;35.50;;;;;;5053091;28;20067;-50
2022/08/06 13:46:25;;;;;;;0.80;0.50;;;28.10;35.50;;;;;;5045774;28;20501;-49
2022/08/06 13:48:57;;;;;;;1.00;0.30;;;28.50;34.60;;;;;;5069780;28;20131;-53
2022/08/06 13:51:24;;;;;;;1.30;0.20;;;28.80;34.40;;;;;;5055715;28;20433;-51
2022/08/06 13:53:56;;;;;;;1.13;0.40;;;29.10;33.70;;;;;;5054417;28;20053;-51
2022/08/06 13:56:26;;;;;;;0.08;0.03;;;29.40;33.20;;;;;;5067385;28;20422;-53
2022/08/06 13:58:55;;;;;;;1.92;0.40;;;29.60;33.00;;;;;;5050711;28;20406;-51